createdAt,value
2022-10-15T00:00:15.602Z,11.50
2022-10-15T00:02:42.780Z,14.95
2022-10-15T00:05:09.922Z,13.13
2022-10-15T00:07:37.031Z,12.40
2022-10-15T00:10:04.424Z,12.80
2022-10-15T00:12:31.542Z,15.02
2022-10-15T00:14:58.687Z,13.13
2022-10-15T00:17:26.223Z,11.80
2022-10-15T00:19:53.466Z,15.82
2022-10-15T00:22:20.851Z,13.32
2022-10-15T00:24:48.177Z,13.55
2022-10-15T00:27:15.315Z,13.43
2022-10-15T00:29:42.734Z,13.70
2022-10-15T00:32:09.944Z,18.08
2022-10-15T00:34:37.374Z,13.05
2022-10-15T00:37:04.500Z,13.98
2022-10-15T00:39:31.788Z,11.25
2022-10-15T00:41:58.988Z,11.75
2022-10-15T00:44:26.729Z,11.85
2022-10-15T00:46:59.889Z,13.27
2022-10-15T00:49:37.964Z,10.55
2022-10-15T00:52:07.293Z,11.85
2022-10-15T00:54:39.322Z,10.93
2022-10-15T00:57:07.619Z,9.63
2022-10-15T00:59:36.894Z,11.90
2022-10-15T01:02:04.273Z,10.65
2022-10-15T01:04:31.727Z,13.27
2022-10-15T01:06:58.857Z,13.85
2022-10-15T01:09:26.334Z,13.15
2022-10-15T01:11:55.141Z,10.23
2022-10-15T01:14:47.285Z,11.02
2022-10-15T01:17:28.546Z,14.13
2022-10-15T01:20:14.182Z,13.85
2022-10-15T01:23:00.279Z,14.25
2022-10-15T01:25:27.620Z,12.82
2022-10-15T01:28:02.895Z,15.48
2022-10-15T01:30:39.645Z,13.02
2022-10-15T01:33:15.990Z,11.35
2022-10-15T01:35:43.074Z,13.77
2022-10-15T01:38:29.038Z,14.25
2022-10-15T01:40:58.293Z,12.68
2022-10-15T01:43:36.315Z,14.43
2022-10-15T01:46:06.677Z,13.70
2022-10-15T01:48:35.417Z,13.43
2022-10-15T01:51:04.948Z,12.75
2022-10-15T01:53:34.272Z,14.40
2022-10-15T01:56:04.849Z,13.98
2022-10-15T01:58:33.058Z,14.68
2022-10-15T02:01:00.234Z,12.27
2022-10-15T02:03:27.477Z,13.13
2022-10-15T02:06:01.185Z,13.98
2022-10-15T02:08:28.457Z,13.48
2022-10-15T02:10:59.972Z,14.35
2022-10-15T02:13:33.883Z,11.90
2022-10-15T02:16:10.905Z,18.08
2022-10-15T02:18:41.163Z,11.88
2022-10-15T02:21:13.918Z,13.15
2022-10-15T02:23:46.326Z,14.02
2022-10-15T02:26:14.462Z,13.00
2022-10-15T02:28:43.366Z,15.27
2022-10-15T02:31:13.065Z,12.80
2022-10-15T02:33:40.413Z,13.82
2022-10-15T02:36:07.772Z,14.68
2022-10-15T02:38:36.135Z,16.55
2022-10-15T02:41:03.702Z,17.33
2022-10-15T02:43:31.094Z,16.73
2022-10-15T02:45:58.362Z,18.50
2022-10-15T02:48:25.863Z,21.67
2022-10-15T02:50:53.005Z,19.33
2022-10-15T02:53:20.203Z,18.30
2022-10-15T02:55:47.308Z,20.08
2022-10-15T02:58:14.453Z,24.00
2022-10-15T03:00:41.714Z,23.90
2022-10-15T03:03:08.873Z,20.60
2022-10-15T03:05:36.172Z,23.75
2022-10-15T03:08:03.430Z,26.80
2022-10-15T03:10:30.624Z,26.50
2022-10-15T03:13:02.731Z,27.48
2022-10-15T03:15:29.916Z,25.38
2022-10-15T03:17:57.143Z,31.95
2022-10-15T03:20:24.302Z,32.75
2022-10-15T03:22:51.502Z,26.92
2022-10-15T03:25:18.609Z,30.25
2022-10-15T03:27:45.713Z,32.42
2022-10-15T03:30:13.041Z,29.90
2022-10-15T03:32:40.151Z,30.50
2022-10-15T03:35:07.912Z,30.80
2022-10-15T03:37:35.060Z,35.65
2022-10-15T03:40:02.194Z,36.40
2022-10-15T03:42:29.337Z,37.45
2022-10-15T03:44:56.526Z,32.72
2022-10-15T03:47:23.671Z,33.67
2022-10-15T03:49:50.806Z,31.23
2022-10-15T03:52:18.101Z,29.73
2022-10-15T03:54:45.236Z,25.50
2022-10-15T03:57:12.368Z,21.13
2022-10-15T03:59:39.660Z,23.48
2022-10-15T04:02:06.877Z,23.02
2022-10-15T04:04:34.250Z,19.55
2022-10-15T04:07:01.409Z,19.00
2022-10-15T04:09:28.517Z,18.85
2022-10-15T04:11:55.638Z,20.85
2022-10-15T04:14:22.822Z,15.82
2022-10-15T04:16:49.965Z,19.67
2022-10-15T04:19:17.609Z,19.02
2022-10-15T04:21:44.891Z,17.65
2022-10-15T04:24:12.002Z,15.88
2022-10-15T04:26:39.225Z,16.95
2022-10-15T04:29:06.401Z,21.77
2022-10-15T04:31:33.873Z,19.90
2022-10-15T04:34:01.063Z,19.98
2022-10-15T04:36:28.246Z,20.17
2022-10-15T04:38:55.355Z,16.58
2022-10-15T04:41:22.492Z,19.10
2022-10-15T04:43:49.721Z,22.40
2022-10-15T04:46:17.124Z,20.35
2022-10-15T04:48:44.284Z,19.75
2022-10-15T04:51:13.521Z,18.40
2022-10-15T04:53:41.059Z,17.50
2022-10-15T04:56:09.406Z,20.13
2022-10-15T04:58:37.261Z,17.73
2022-10-15T05:01:05.675Z,16.75
2022-10-15T05:06:07.107Z,22.08
2022-10-15T05:08:36.704Z,17.30
2022-10-15T05:11:05.057Z,18.42
2022-10-15T05:13:32.431Z,15.65
2022-10-15T05:16:09.250Z,12.05
2022-10-15T05:18:36.478Z,14.68
2022-10-15T05:21:03.592Z,16.77
2022-10-15T05:23:30.718Z,16.80
2022-10-15T05:26:01.554Z,18.92
2022-10-15T05:28:28.764Z,19.45
2022-10-15T05:30:55.922Z,17.60
2022-10-15T05:33:23.117Z,18.73
2022-10-15T05:35:50.272Z,16.80
2022-10-15T05:38:17.589Z,14.95
2022-10-15T05:40:49.227Z,14.77
2022-10-15T05:43:16.472Z,17.40
2022-10-15T05:45:43.617Z,25.20
2022-10-15T05:48:10.908Z,15.93
2022-10-15T05:50:38.013Z,15.35
2022-10-15T05:53:05.146Z,17.13
2022-10-15T05:55:32.309Z,15.48
2022-10-15T05:58:02.481Z,18.30
2022-10-15T06:00:29.624Z,14.02
2022-10-15T06:02:56.840Z,17.40
2022-10-15T06:05:24.015Z,17.85
2022-10-15T06:07:51.181Z,17.10
2022-10-15T06:10:18.483Z,17.20
2022-10-15T06:12:49.478Z,16.83
2022-10-15T06:15:16.874Z,13.88
2022-10-15T06:17:44.162Z,15.30
2022-10-15T06:20:11.914Z,15.85
2022-10-15T06:22:39.040Z,12.40
2022-10-15T06:25:07.003Z,15.50
2022-10-15T06:27:34.231Z,21.65
2022-10-15T06:30:01.336Z,14.70
2022-10-15T06:32:28.528Z,11.18
2022-10-15T06:34:55.697Z,14.40
2022-10-15T06:37:23.085Z,15.40
2022-10-15T06:39:50.446Z,10.93
2022-10-15T06:42:17.696Z,11.05
2022-10-15T06:44:44.805Z,10.68
2022-10-15T06:47:12.065Z,11.27
2022-10-15T06:49:39.200Z,13.27
2022-10-15T06:52:06.324Z,18.60
2022-10-15T06:54:33.536Z,11.63
2022-10-15T06:57:00.653Z,12.32
2022-10-15T06:59:27.799Z,11.73
2022-10-15T07:01:55.051Z,11.43
2022-10-15T07:04:23.503Z,10.10
2022-10-15T07:06:50.761Z,13.25
2022-10-15T07:09:18.029Z,11.52
2022-10-15T07:11:45.153Z,11.77
2022-10-15T07:14:12.248Z,11.48
2022-10-15T07:16:42.563Z,19.05
2022-10-15T07:19:10.442Z,11.47
2022-10-15T07:21:37.577Z,11.13
2022-10-15T07:24:04.952Z,8.88
2022-10-15T07:26:32.085Z,11.60
2022-10-15T07:28:59.331Z,10.95
2022-10-15T07:31:26.541Z,8.55
2022-10-15T07:33:53.679Z,10.40
2022-10-15T07:36:20.882Z,7.82
2022-10-15T07:38:48.149Z,11.55
2022-10-15T07:41:15.302Z,8.90
2022-10-15T07:43:42.542Z,10.90
2022-10-15T07:46:09.744Z,8.40
2022-10-15T07:48:36.935Z,12.55
2022-10-15T07:51:07.943Z,8.68
2022-10-15T07:53:35.634Z,9.48
2022-10-15T07:56:11.226Z,12.82
2022-10-15T07:58:38.918Z,8.93
2022-10-15T08:01:06.719Z,10.90
2022-10-15T08:03:33.988Z,15.07
2022-10-15T08:06:02.022Z,11.05
2022-10-15T08:08:29.407Z,7.65
2022-10-15T08:10:56.599Z,9.80
2022-10-15T08:13:24.058Z,12.75
2022-10-15T08:15:51.927Z,7.30
2022-10-15T08:18:20.965Z,11.13
2022-10-15T08:20:48.261Z,7.03
2022-10-15T08:23:16.695Z,8.80
2022-10-15T08:25:44.231Z,8.90
2022-10-15T08:28:11.409Z,8.90
2022-10-15T08:30:39.020Z,9.77
2022-10-15T08:33:06.200Z,11.05
2022-10-15T08:35:36.737Z,7.82
2022-10-15T08:38:03.990Z,10.93
2022-10-15T08:40:31.315Z,7.22
2022-10-15T08:42:58.692Z,7.50
2022-10-15T08:45:30.822Z,6.75
2022-10-15T08:48:00.983Z,7.25
2022-10-15T08:50:48.290Z,6.90
2022-10-15T08:53:20.738Z,6.18
2022-10-15T08:55:50.566Z,9.07
2022-10-15T08:58:19.925Z,6.50
2022-10-15T09:00:50.144Z,9.75
2022-10-15T09:03:33.257Z,8.05
2022-10-15T09:06:08.371Z,5.30
2022-10-15T09:08:50.790Z,7.80
2022-10-15T09:11:35.973Z,7.88
2022-10-15T09:14:05.082Z,6.85
2022-10-15T09:16:34.817Z,9.18
2022-10-15T09:19:04.541Z,5.30
2022-10-15T09:21:32.078Z,7.88
2022-10-15T09:24:01.995Z,6.47
2022-10-15T09:26:47.876Z,7.93
2022-10-15T09:29:33.753Z,4.57
2022-10-15T09:32:13.038Z,7.38
2022-10-15T09:34:43.160Z,7.72
2022-10-15T09:37:15.517Z,7.43
2022-10-15T09:39:54.871Z,10.90
2022-10-15T09:42:28.371Z,9.00
2022-10-15T09:44:56.841Z,8.75
2022-10-15T09:47:31.293Z,6.88
2022-10-15T09:49:58.405Z,10.85
2022-10-15T09:52:28.583Z,14.55
2022-10-15T09:55:14.054Z,9.57
2022-10-15T09:57:41.464Z,10.27
2022-10-15T10:00:10.510Z,12.10
2022-10-15T10:02:37.871Z,9.43
2022-10-15T10:05:23.848Z,14.48
2022-10-15T10:07:51.056Z,10.85
2022-10-15T10:10:28.205Z,12.27
2022-10-15T10:12:56.630Z,10.65
2022-10-15T10:15:37.242Z,13.43
2022-10-15T10:18:06.742Z,11.35
2022-10-15T10:20:34.788Z,9.10
2022-10-15T10:23:03.521Z,8.32
2022-10-15T10:25:32.930Z,8.13
2022-10-15T10:28:05.233Z,7.15
2022-10-15T10:30:51.208Z,11.63
2022-10-15T10:33:23.821Z,9.55
2022-10-15T10:35:51.789Z,4.78
2022-10-15T10:38:20.938Z,8.30
2022-10-15T10:40:51.508Z,6.72
2022-10-15T10:43:18.791Z,8.98
2022-10-15T10:45:54.980Z,6.07
2022-10-15T10:48:42.544Z,6.57
2022-10-15T10:51:12.911Z,7.50
2022-10-15T10:53:47.982Z,7.03
2022-10-15T10:56:15.850Z,6.90
2022-10-15T10:58:43.568Z,7.75
2022-10-15T11:01:14.416Z,4.57
2022-10-15T11:03:48.535Z,9.50
2022-10-15T11:06:24.396Z,6.60
2022-10-15T11:08:54.286Z,6.05
2022-10-15T11:11:24.210Z,3.67
2022-10-15T11:13:57.178Z,3.92
2022-10-15T11:16:28.623Z,7.05
2022-10-15T11:19:09.390Z,4.72
2022-10-15T11:22:15.630Z,5.63
2022-10-15T11:24:49.477Z,5.63
2022-10-15T11:27:41.799Z,5.60
2022-10-15T11:30:13.005Z,5.63
2022-10-15T11:35:52.336Z,6.13
2022-10-15T11:38:32.973Z,7.38
2022-10-15T11:41:06.033Z,6.72
2022-10-15T11:43:42.046Z,15.75
2022-10-15T11:46:09.218Z,9.60
2022-10-15T11:48:36.349Z,7.05
2022-10-15T11:51:32.715Z,9.07
2022-10-15T11:53:59.828Z,6.75
2022-10-15T11:56:28.830Z,8.70
2022-10-15T11:59:05.173Z,7.07
2022-10-15T12:01:35.102Z,6.30
2022-10-15T12:04:14.490Z,6.75
2022-10-15T12:06:44.438Z,6.65
2022-10-15T12:09:16.332Z,7.45
2022-10-15T12:11:50.123Z,6.50
2022-10-15T12:14:17.522Z,7.13
2022-10-15T12:16:48.095Z,6.80
2022-10-15T12:19:19.575Z,9.35
2022-10-15T12:21:55.807Z,7.80
2022-10-15T12:24:38.082Z,6.75
2022-10-15T12:27:22.297Z,5.10
2022-10-15T12:29:51.555Z,10.13
2022-10-15T12:32:26.097Z,6.28
2022-10-15T12:34:57.977Z,7.50
2022-10-15T12:37:27.223Z,6.60
2022-10-15T12:40:26.880Z,10.43
2022-10-15T12:42:59.545Z,7.65
2022-10-15T12:45:40.331Z,5.28
2022-10-15T12:48:16.669Z,5.13
2022-10-15T12:50:44.061Z,6.28
2022-10-15T12:53:20.506Z,7.28
2022-10-15T12:56:07.630Z,8.10
2022-10-15T12:58:35.770Z,8.45
2022-10-15T13:01:07.784Z,6.53
2022-10-15T13:03:36.379Z,7.00
2022-10-15T13:06:23.281Z,6.78
2022-10-15T13:09:10.674Z,6.47
2022-10-15T13:11:41.575Z,7.63
2022-10-15T13:14:27.936Z,7.63
2022-10-15T13:16:55.509Z,7.43
2022-10-15T13:19:22.667Z,5.68
2022-10-15T13:21:54.737Z,6.18
2022-10-15T13:24:23.842Z,6.03
2022-10-15T13:26:51.398Z,5.07
2022-10-15T13:29:22.713Z,7.18
2022-10-15T13:31:50.313Z,6.80
2022-10-15T13:34:20.163Z,6.20
2022-10-15T13:36:47.506Z,8.05
2022-10-15T13:39:29.790Z,6.82
2022-10-15T13:42:06.480Z,8.07
2022-10-15T13:44:34.117Z,7.85
2022-10-15T13:47:01.237Z,6.32
2022-10-15T13:49:29.002Z,9.82
2022-10-15T13:51:56.596Z,6.63
2022-10-15T13:54:25.465Z,8.27
2022-10-15T13:56:58.012Z,5.90
2022-10-15T13:59:26.241Z,11.00
2022-10-15T14:02:00.807Z,8.38
2022-10-15T14:04:29.375Z,8.23
2022-10-15T14:07:02.088Z,8.52
2022-10-15T14:09:31.973Z,9.90
2022-10-15T14:12:03.212Z,6.22
2022-10-15T14:14:37.131Z,9.38
2022-10-15T14:17:06.310Z,9.50
2022-10-15T14:19:34.084Z,7.85
2022-10-15T14:22:01.826Z,11.05
2022-10-15T14:24:33.342Z,7.47
2022-10-15T14:27:21.122Z,7.72
2022-10-15T14:29:49.481Z,9.10
2022-10-15T14:32:19.646Z,8.48
2022-10-15T14:34:46.966Z,8.70
2022-10-15T14:37:33.261Z,14.40
2022-10-15T14:40:12.508Z,10.75
2022-10-15T14:42:45.546Z,9.63
2022-10-15T14:45:13.030Z,15.30
2022-10-15T14:47:40.213Z,10.32
2022-10-15T14:50:07.689Z,11.60
2022-10-15T14:52:37.158Z,10.77
2022-10-15T14:55:09.477Z,10.60
2022-10-15T14:57:40.114Z,10.05
2022-10-15T15:00:14.941Z,12.80
2022-10-15T15:02:42.477Z,12.02
2022-10-15T15:05:12.389Z,9.07
2022-10-15T15:07:40.250Z,12.30
2022-10-15T15:10:08.560Z,14.52
2022-10-15T15:12:35.902Z,11.07
2022-10-15T15:15:03.026Z,15.38
2022-10-15T15:17:31.041Z,13.80
2022-10-15T15:19:58.532Z,15.55
2022-10-15T15:22:28.807Z,13.48
2022-10-15T15:24:56.540Z,14.68
2022-10-15T15:27:25.474Z,13.55
2022-10-15T15:29:52.706Z,14.80
2022-10-15T15:32:19.893Z,15.15
2022-10-15T15:34:47.573Z,20.40
2022-10-15T15:37:15.951Z,22.25
2022-10-15T15:39:43.275Z,17.30
2022-10-15T15:42:14.674Z,16.77
2022-10-15T15:44:41.973Z,14.52
2022-10-15T15:47:09.474Z,16.08
2022-10-15T15:49:37.968Z,15.98
2022-10-15T15:52:05.939Z,16.17
2022-10-15T15:54:33.163Z,12.48
2022-10-15T15:57:00.406Z,16.45
2022-10-15T15:59:27.709Z,17.83
2022-10-15T16:01:55.205Z,18.00
2022-10-15T16:04:22.471Z,18.20
2022-10-15T16:06:49.616Z,20.65
2022-10-15T16:09:17.631Z,22.90
2022-10-15T16:11:45.061Z,22.73
2022-10-15T16:14:12.687Z,20.80
2022-10-15T16:16:40.131Z,29.00
2022-10-15T16:19:07.708Z,25.20
2022-10-15T16:21:35.222Z,25.85
2022-10-15T16:24:02.413Z,28.65
2022-10-15T16:26:29.575Z,28.67
2022-10-15T16:28:56.910Z,30.35
2022-10-15T16:31:29.374Z,28.73
2022-10-15T16:33:57.880Z,30.20
2022-10-15T16:36:25.252Z,35.65
2022-10-15T16:38:52.606Z,32.38
2022-10-15T16:41:19.795Z,34.45
2022-10-15T16:43:47.923Z,35.60
2022-10-15T16:46:16.029Z,36.20
2022-10-15T16:48:43.594Z,33.15
2022-10-15T16:51:17.304Z,35.45
2022-10-15T16:53:45.171Z,33.90
2022-10-15T16:56:14.514Z,35.33
2022-10-15T16:58:41.975Z,32.55
2022-10-15T17:01:11.721Z,31.60
2022-10-15T17:03:39.445Z,36.00
2022-10-15T17:06:10.986Z,31.73
2022-10-15T17:08:42.887Z,25.63
2022-10-15T17:11:11.309Z,28.08
2022-10-15T17:13:38.537Z,26.85
2022-10-15T17:16:10.186Z,29.17
2022-10-15T17:18:37.539Z,26.25
2022-10-15T17:21:04.781Z,28.75
2022-10-15T17:23:31.975Z,28.80
2022-10-15T17:26:03.556Z,23.33
2022-10-15T17:28:30.654Z,25.98
2022-10-15T17:31:02.144Z,28.95
2022-10-15T17:33:29.353Z,25.60
2022-10-15T17:35:56.497Z,25.00
2022-10-15T17:38:23.684Z,26.13
2022-10-15T17:40:51.110Z,25.00
2022-10-15T17:43:18.271Z,24.90
2022-10-15T17:45:45.462Z,25.23
2022-10-15T17:48:12.649Z,20.83
2022-10-15T17:50:44.524Z,24.35
2022-10-15T17:53:13.473Z,21.80
2022-10-15T17:55:40.599Z,25.00
2022-10-15T17:58:07.746Z,26.65
2022-10-15T18:00:35.035Z,22.15
2022-10-15T18:03:02.183Z,24.75
2022-10-15T18:05:29.392Z,19.27
2022-10-15T18:07:56.615Z,20.92
2022-10-15T18:10:23.846Z,19.60
2022-10-15T18:12:51.318Z,20.00
2022-10-15T18:15:18.541Z,21.25
2022-10-15T18:17:45.650Z,19.83
2022-10-15T18:20:14.045Z,20.85
2022-10-15T18:22:41.333Z,21.40
2022-10-15T18:25:08.594Z,21.80
2022-10-15T18:27:35.734Z,20.33
2022-10-15T18:30:02.916Z,21.27
2022-10-15T18:32:30.071Z,18.90
2022-10-15T18:34:57.206Z,24.58
2022-10-15T18:37:24.650Z,17.95
2022-10-15T18:39:51.962Z,18.30
2022-10-15T18:42:19.073Z,20.05
2022-10-15T18:44:46.386Z,17.63
2022-10-15T18:47:13.541Z,19.30
2022-10-15T18:49:40.706Z,18.42
2022-10-15T18:52:21.594Z,16.73
2022-10-15T18:54:55.106Z,15.43
2022-10-15T18:57:22.295Z,15.90
2022-10-15T18:59:49.433Z,15.55
2022-10-15T19:02:16.667Z,16.63
2022-10-15T19:04:43.949Z,20.60
2022-10-15T19:07:11.103Z,15.90
2022-10-15T19:09:38.226Z,15.30
2022-10-15T19:12:05.785Z,17.88
2022-10-15T19:14:32.930Z,17.58
2022-10-15T19:17:00.186Z,13.73
2022-10-15T19:19:27.684Z,15.48
2022-10-15T19:21:56.059Z,16.83
2022-10-15T19:24:23.851Z,15.73
2022-10-15T19:26:51.961Z,15.90
2022-10-15T19:29:19.417Z,13.18
2022-10-15T19:31:46.792Z,13.43
2022-10-15T19:34:14.327Z,12.60
2022-10-15T19:36:42.852Z,12.07
2022-10-15T19:39:12.476Z,12.25
2022-10-15T19:41:40.608Z,11.55
2022-10-15T19:44:11.322Z,13.80
2022-10-15T19:46:38.891Z,14.35
2022-10-15T19:49:06.827Z,12.20
2022-10-15T19:51:34.214Z,13.55
2022-10-15T19:54:01.368Z,13.80
2022-10-15T19:56:29.077Z,12.90
2022-10-15T19:58:57.875Z,12.23
2022-10-15T20:01:26.263Z,14.02
2022-10-15T20:03:53.562Z,13.60
2022-10-15T20:06:21.288Z,12.68
2022-10-15T20:08:48.837Z,12.82
2022-10-15T20:11:16.386Z,12.55
2022-10-15T20:13:43.493Z,14.35
2022-10-15T20:16:14.086Z,13.57
2022-10-15T20:18:41.390Z,13.07
2022-10-15T20:21:09.647Z,13.80
2022-10-15T20:23:39.963Z,11.77
2022-10-15T20:26:11.502Z,13.30
2022-10-15T20:28:39.670Z,11.07
2022-10-15T20:31:07.815Z,11.77
2022-10-15T20:33:35.164Z,11.00
2022-10-15T20:36:24.041Z,12.10
2022-10-15T20:38:51.806Z,12.75
2022-10-15T20:41:22.454Z,13.80
2022-10-15T20:43:53.993Z,11.73
2022-10-15T20:46:24.482Z,12.20
2022-10-15T20:48:51.775Z,14.20
2022-10-15T20:51:20.658Z,10.93
2022-10-15T20:53:49.752Z,12.48
2022-10-15T20:56:16.891Z,13.70
2022-10-15T20:58:45.098Z,12.07
2022-10-15T21:01:12.222Z,11.35
2022-10-15T21:03:39.381Z,10.68
2022-10-15T21:06:06.600Z,12.88
2022-10-15T21:08:33.745Z,11.52
2022-10-15T21:11:05.025Z,15.25
2022-10-15T21:16:02.681Z,14.35
2022-10-15T21:18:29.962Z,14.70
2022-10-15T21:21:11.104Z,13.25
2022-10-15T21:23:38.982Z,13.98
2022-10-15T21:26:10.447Z,15.40
2022-10-15T21:28:37.848Z,15.95
2022-10-15T21:31:12.923Z,14.00
2022-10-15T21:33:40.415Z,13.20
2022-10-15T21:36:13.800Z,16.02
2022-10-15T21:38:41.335Z,15.15
2022-10-15T21:41:09.268Z,14.07
2022-10-15T21:43:36.464Z,13.70
2022-10-15T21:46:11.680Z,13.48
2022-10-15T21:48:39.102Z,14.35
2022-10-15T21:51:09.166Z,15.70
2022-10-15T21:53:37.624Z,14.80
2022-10-15T21:56:05.693Z,11.50
2022-10-15T21:58:33.206Z,11.63
2022-10-15T22:01:07.813Z,12.80
2022-10-15T22:03:34.960Z,13.93
2022-10-15T22:06:02.091Z,12.38
2022-10-15T22:08:29.637Z,16.40
2022-10-15T22:11:07.226Z,11.73
2022-10-15T22:13:34.411Z,15.13
2022-10-15T22:16:01.653Z,13.77
2022-10-15T22:18:29.026Z,12.73
2022-10-15T22:20:56.205Z,13.10
2022-10-15T22:23:26.933Z,12.05
2022-10-15T22:25:58.915Z,11.35
2022-10-15T22:28:26.358Z,13.68
2022-10-15T22:30:53.485Z,13.98
2022-10-15T22:33:20.689Z,12.43
2022-10-15T22:35:47.860Z,14.82
2022-10-15T22:38:14.966Z,14.98
2022-10-15T22:40:42.205Z,13.63
2022-10-15T22:43:09.395Z,17.38
2022-10-15T22:45:36.548Z,14.35
2022-10-15T22:48:03.768Z,12.85
2022-10-15T22:50:30.892Z,11.65
2022-10-15T22:52:58.051Z,11.45
2022-10-15T22:55:25.318Z,13.43
2022-10-15T22:57:52.535Z,13.23
2022-10-15T23:00:19.703Z,14.43
2022-10-15T23:02:47.230Z,14.15
2022-10-15T23:05:14.365Z,12.57
2022-10-15T23:07:44.262Z,14.45
2022-10-15T23:10:12.165Z,12.38
2022-10-15T23:12:39.318Z,15.95
2022-10-15T23:15:06.750Z,11.82
2022-10-15T23:17:33.936Z,11.82
2022-10-15T23:20:01.067Z,11.05
2022-10-15T23:22:28.316Z,12.40
2022-10-15T23:24:55.776Z,15.93
2022-10-15T23:27:23.120Z,16.10
2022-10-15T23:29:56.938Z,13.35
2022-10-15T23:32:34.771Z,14.20
2022-10-15T23:35:01.911Z,14.57
2022-10-15T23:37:29.064Z,14.70
2022-10-15T23:39:56.256Z,15.00
2022-10-15T23:42:23.913Z,13.23
2022-10-15T23:44:51.068Z,16.58
2022-10-15T23:47:18.237Z,16.92
2022-10-15T23:49:45.348Z,14.70
2022-10-15T23:52:12.461Z,14.13
2022-10-15T23:54:39.704Z,13.73
2022-10-15T23:57:06.813Z,11.82
2022-10-15T23:59:33.958Z,12.18
